sensor_id;sensor_type;location;lat;lon;timestamp;P1;durP1;ratioP1;P2;durP2;ratioP2
36659;SDS011;22654;51.054;3.654;2022-09-27T00:01:16;4.50;;;2.10;;
36659;SDS011;22654;51.054;3.654;2022-09-27T00:03:42;6.10;;;2.42;;
36659;SDS011;22654;51.054;3.654;2022-09-27T00:09:03;7.40;;;2.88;;
36659;SDS011;22654;51.054;3.654;2022-09-27T00:13:57;6.43;;;3.38;;
36659;SDS011;22654;51.054;3.654;2022-09-27T00:16:25;9.25;;;2.60;;
36659;SDS011;22654;51.054;3.654;2022-09-27T00:18:56;16.83;;;3.38;;
36659;SDS011;22654;51.054;3.654;2022-09-27T00:21:27;11.30;;;3.15;;
36659;SDS011;22654;51.054;3.654;2022-09-27T00:23:55;8.77;;;2.35;;
36659;SDS011;22654;51.054;3.654;2022-09-27T00:26:21;4.28;;;1.92;;
36659;SDS011;22654;51.054;3.654;2022-09-27T00:28:47;7.85;;;2.33;;
36659;SDS011;22654;51.054;3.654;2022-09-27T00:31:18;7.13;;;2.95;;
36659;SDS011;22654;51.054;3.654;2022-09-27T00:36:12;12.52;;;2.45;;
36659;SDS011;22654;51.054;3.654;2022-09-27T00:38:39;10.85;;;2.53;;
36659;SDS011;22654;51.054;3.654;2022-09-27T00:41:06;6.80;;;2.10;;
36659;SDS011;22654;51.054;3.654;2022-09-27T00:43:48;6.55;;;2.45;;
36659;SDS011;22654;51.054;3.654;2022-09-27T00:46:18;11.27;;;2.47;;
36659;SDS011;22654;51.054;3.654;2022-09-27T00:49:07;6.65;;;2.00;;
36659;SDS011;22654;51.054;3.654;2022-09-27T00:51:46;7.63;;;2.42;;
36659;SDS011;22654;51.054;3.654;2022-09-27T00:54:19;5.97;;;2.50;;
36659;SDS011;22654;51.054;3.654;2022-09-27T00:56:46;8.50;;;2.28;;
36659;SDS011;22654;51.054;3.654;2022-09-27T00:59:16;8.43;;;2.53;;
36659;SDS011;22654;51.054;3.654;2022-09-27T01:01:49;9.07;;;2.50;;
36659;SDS011;22654;51.054;3.654;2022-09-27T01:04:16;9.98;;;2.17;;
36659;SDS011;22654;51.054;3.654;2022-09-27T01:09:12;7.40;;;2.45;;
36659;SDS011;22654;51.054;3.654;2022-09-27T01:11:47;11.18;;;2.17;;
36659;SDS011;22654;51.054;3.654;2022-09-27T01:29:31;6.05;;;2.00;;
36659;SDS011;22654;51.054;3.654;2022-09-27T01:32:12;12.15;;;2.00;;
36659;SDS011;22654;51.054;3.654;2022-09-27T01:35:12;8.60;;;2.15;;
36659;SDS011;22654;51.054;3.654;2022-09-27T01:38:09;8.10;;;2.03;;
36659;SDS011;22654;51.054;3.654;2022-09-27T01:40:48;5.05;;;1.88;;
36659;SDS011;22654;51.054;3.654;2022-09-27T01:43:59;3.75;;;1.40;;
36659;SDS011;22654;51.054;3.654;2022-09-27T01:49:15;8.25;;;1.92;;
36659;SDS011;22654;51.054;3.654;2022-09-27T01:51:51;6.40;;;2.10;;
36659;SDS011;22654;51.054;3.654;2022-09-27T01:54:31;9.27;;;1.98;;
36659;SDS011;22654;51.054;3.654;2022-09-27T01:57:30;6.25;;;1.80;;
36659;SDS011;22654;51.054;3.654;2022-09-27T02:00:06;5.70;;;2.00;;
36659;SDS011;22654;51.054;3.654;2022-09-27T02:02:42;1.50;;;1.40;;
36659;SDS011;22654;51.054;3.654;2022-09-27T02:05:28;2.22;;;1.40;;
36659;SDS011;22654;51.054;3.654;2022-09-27T02:08:12;7.23;;;2.13;;
36659;SDS011;22654;51.054;3.654;2022-09-27T02:10:53;4.82;;;1.90;;
36659;SDS011;22654;51.054;3.654;2022-09-27T02:21:54;5.38;;;2.08;;
36659;SDS011;22654;51.054;3.654;2022-09-27T02:24:50;5.65;;;2.58;;
36659;SDS011;22654;51.054;3.654;2022-09-27T02:27:28;6.07;;;1.88;;
36659;SDS011;22654;51.054;3.654;2022-09-27T02:30:17;7.05;;;2.78;;
36659;SDS011;22654;51.054;3.654;2022-09-27T02:32:49;7.43;;;1.70;;
36659;SDS011;22654;51.054;3.654;2022-09-27T02:35:21;7.93;;;2.00;;
36659;SDS011;22654;51.054;3.654;2022-09-27T02:37:52;6.10;;;2.10;;
36659;SDS011;22654;51.054;3.654;2022-09-27T02:40:19;6.00;;;2.00;;
36659;SDS011;22654;51.054;3.654;2022-09-27T02:42:45;8.05;;;2.13;;
36659;SDS011;22654;51.054;3.654;2022-09-27T02:45:11;8.38;;;2.00;;
36659;SDS011;22654;51.054;3.654;2022-09-27T02:47:47;6.15;;;2.10;;
36659;SDS011;22654;51.054;3.654;2022-09-27T02:57:16;6.35;;;1.83;;
36659;SDS011;22654;51.054;3.654;2022-09-27T03:02:52;7.97;;;2.15;;
36659;SDS011;22654;51.054;3.654;2022-09-27T03:06:02;6.00;;;2.10;;
36659;SDS011;22654;51.054;3.654;2022-09-27T03:08:30;2.67;;;1.45;;
36659;SDS011;22654;51.054;3.654;2022-09-27T03:10:57;4.97;;;1.85;;
36659;SDS011;22654;51.054;3.654;2022-09-27T03:13:23;6.07;;;2.22;;
36659;SDS011;22654;51.054;3.654;2022-09-27T03:15:50;5.70;;;2.15;;
36659;SDS011;22654;51.054;3.654;2022-09-27T03:18:45;4.05;;;1.88;;
36659;SDS011;22654;51.054;3.654;2022-09-27T03:21:43;6.10;;;2.50;;
36659;SDS011;22654;51.054;3.654;2022-09-27T03:24:08;5.13;;;2.35;;
36659;SDS011;22654;51.054;3.654;2022-09-27T03:26:34;7.78;;;2.47;;
36659;SDS011;22654;51.054;3.654;2022-09-27T03:29:00;5.68;;;2.63;;
36659;SDS011;22654;51.054;3.654;2022-09-27T03:31:26;12.27;;;3.78;;
36659;SDS011;22654;51.054;3.654;2022-09-27T03:34:12;7.93;;;2.75;;
36659;SDS011;22654;51.054;3.654;2022-09-27T03:36:39;9.32;;;3.00;;
36659;SDS011;22654;51.054;3.654;2022-09-27T03:39:04;9.43;;;3.40;;
36659;SDS011;22654;51.054;3.654;2022-09-27T03:41:31;10.48;;;3.55;;
36659;SDS011;22654;51.054;3.654;2022-09-27T03:43:57;7.22;;;4.43;;
36659;SDS011;22654;51.054;3.654;2022-09-27T03:46:24;8.43;;;4.63;;
36659;SDS011;22654;51.054;3.654;2022-09-27T03:48:50;10.02;;;5.15;;
36659;SDS011;22654;51.054;3.654;2022-09-27T03:51:17;9.85;;;5.57;;
36659;SDS011;22654;51.054;3.654;2022-09-27T03:53:42;11.88;;;5.22;;
36659;SDS011;22654;51.054;3.654;2022-09-27T03:56:09;7.40;;;4.95;;
36659;SDS011;22654;51.054;3.654;2022-09-27T03:58:35;8.30;;;5.00;;
36659;SDS011;22654;51.054;3.654;2022-09-27T04:01:01;10.43;;;5.65;;
36659;SDS011;22654;51.054;3.654;2022-09-27T04:03:29;8.38;;;4.80;;
36659;SDS011;22654;51.054;3.654;2022-09-27T04:06:12;7.97;;;5.68;;
36659;SDS011;22654;51.054;3.654;2022-09-27T04:08:42;10.35;;;5.20;;
36659;SDS011;22654;51.054;3.654;2022-09-27T04:11:09;5.88;;;5.35;;
36659;SDS011;22654;51.054;3.654;2022-09-27T04:13:36;7.93;;;5.65;;
36659;SDS011;22654;51.054;3.654;2022-09-27T04:16:02;6.25;;;4.65;;
36659;SDS011;22654;51.054;3.654;2022-09-27T04:19:03;6.57;;;4.78;;
36659;SDS011;22654;51.054;3.654;2022-09-27T04:21:51;9.05;;;5.20;;
36659;SDS011;22654;51.054;3.654;2022-09-27T04:24:17;6.50;;;4.70;;
36659;SDS011;22654;51.054;3.654;2022-09-27T04:26:55;8.90;;;5.13;;
36659;SDS011;22654;51.054;3.654;2022-09-27T04:29:24;7.63;;;5.38;;
36659;SDS011;22654;51.054;3.654;2022-09-27T04:31:52;6.88;;;5.55;;
36659;SDS011;22654;51.054;3.654;2022-09-27T04:34:50;8.07;;;5.10;;
36659;SDS011;22654;51.054;3.654;2022-09-27T04:37:35;8.55;;;5.65;;
36659;SDS011;22654;51.054;3.654;2022-09-27T04:40:02;6.75;;;5.18;;
36659;SDS011;22654;51.054;3.654;2022-09-27T04:42:29;7.75;;;6.28;;
36659;SDS011;22654;51.054;3.654;2022-09-27T04:44:55;11.27;;;6.75;;
36659;SDS011;22654;51.054;3.654;2022-09-27T04:47:21;10.80;;;6.22;;
36659;SDS011;22654;51.054;3.654;2022-09-27T04:49:47;10.75;;;7.53;;
36659;SDS011;22654;51.054;3.654;2022-09-27T04:52:14;8.77;;;6.60;;
36659;SDS011;22654;51.054;3.654;2022-09-27T04:54:40;9.27;;;7.35;;
36659;SDS011;22654;51.054;3.654;2022-09-27T04:57:09;9.52;;;6.57;;
36659;SDS011;22654;51.054;3.654;2022-09-27T04:59:37;10.63;;;6.53;;
36659;SDS011;22654;51.054;3.654;2022-09-27T05:02:05;7.47;;;6.30;;
36659;SDS011;22654;51.054;3.654;2022-09-27T05:04:49;9.90;;;7.00;;
36659;SDS011;22654;51.054;3.654;2022-09-27T05:07:18;10.18;;;7.30;;
36659;SDS011;22654;51.054;3.654;2022-09-27T05:09:50;7.88;;;6.93;;
36659;SDS011;22654;51.054;3.654;2022-09-27T05:12:16;11.02;;;6.47;;
36659;SDS011;22654;51.054;3.654;2022-09-27T05:14:45;8.77;;;7.28;;
36659;SDS011;22654;51.054;3.654;2022-09-27T05:17:14;9.75;;;6.05;;
36659;SDS011;22654;51.054;3.654;2022-09-27T05:20:12;8.20;;;6.00;;
36659;SDS011;22654;51.054;3.654;2022-09-27T05:22:51;8.90;;;6.75;;
36659;SDS011;22654;51.054;3.654;2022-09-27T05:25:17;7.10;;;6.15;;
36659;SDS011;22654;51.054;3.654;2022-09-27T05:27:43;7.38;;;5.97;;
36659;SDS011;22654;51.054;3.654;2022-09-27T05:30:09;8.20;;;6.45;;
36659;SDS011;22654;51.054;3.654;2022-09-27T05:32:56;8.60;;;5.47;;
36659;SDS011;22654;51.054;3.654;2022-09-27T05:35:42;8.65;;;6.07;;
36659;SDS011;22654;51.054;3.654;2022-09-27T05:38:12;7.03;;;6.30;;
36659;SDS011;22654;51.054;3.654;2022-09-27T05:40:42;8.98;;;7.05;;
36659;SDS011;22654;51.054;3.654;2022-09-27T05:43:10;9.93;;;6.28;;
36659;SDS011;22654;51.054;3.654;2022-09-27T05:45:35;7.22;;;6.53;;
36659;SDS011;22654;51.054;3.654;2022-09-27T05:48:03;11.60;;;6.45;;
36659;SDS011;22654;51.054;3.654;2022-09-27T05:50:33;13.43;;;7.90;;
36659;SDS011;22654;51.054;3.654;2022-09-27T05:52:59;13.23;;;8.48;;
36659;SDS011;22654;51.054;3.654;2022-09-27T05:55:25;13.07;;;7.85;;
36659;SDS011;22654;51.054;3.654;2022-09-27T05:57:57;12.07;;;7.50;;
36659;SDS011;22654;51.054;3.654;2022-09-27T06:00:32;9.63;;;7.43;;
36659;SDS011;22654;51.054;3.654;2022-09-27T06:03:03;10.18;;;8.20;;
36659;SDS011;22654;51.054;3.654;2022-09-27T06:06:03;12.32;;;7.30;;
36659;SDS011;22654;51.054;3.654;2022-09-27T06:08:37;10.55;;;8.43;;
36659;SDS011;22654;51.054;3.654;2022-09-27T06:11:09;8.43;;;7.53;;
36659;SDS011;22654;51.054;3.654;2022-09-27T06:13:39;11.70;;;8.10;;
36659;SDS011;22654;51.054;3.654;2022-09-27T06:16:08;13.05;;;8.77;;
36659;SDS011;22654;51.054;3.654;2022-09-27T06:18:39;8.85;;;7.95;;
36659;SDS011;22654;51.054;3.654;2022-09-27T06:21:06;12.63;;;7.63;;
36659;SDS011;22654;51.054;3.654;2022-09-27T06:23:33;11.70;;;7.03;;
36659;SDS011;22654;51.054;3.654;2022-09-27T06:26:08;11.93;;;6.55;;
36659;SDS011;22654;51.054;3.654;2022-09-27T06:29:00;7.00;;;6.20;;
36659;SDS011;22654;51.054;3.654;2022-09-27T06:31:27;11.07;;;7.15;;
36659;SDS011;22654;51.054;3.654;2022-09-27T06:34:18;12.95;;;6.88;;
36659;SDS011;22654;51.054;3.654;2022-09-27T06:36:44;9.38;;;7.10;;
36659;SDS011;22654;51.054;3.654;2022-09-27T06:39:14;12.00;;;8.05;;
36659;SDS011;22654;51.054;3.654;2022-09-27T06:41:54;11.82;;;7.18;;
36659;SDS011;22654;51.054;3.654;2022-09-27T06:44:43;14.15;;;7.38;;
36659;SDS011;22654;51.054;3.654;2022-09-27T06:47:40;12.65;;;8.32;;
36659;SDS011;22654;51.054;3.654;2022-09-27T06:50:36;10.25;;;7.40;;
36659;SDS011;22654;51.054;3.654;2022-09-27T06:53:04;10.70;;;6.90;;
36659;SDS011;22654;51.054;3.654;2022-09-27T06:55:31;10.68;;;7.63;;
36659;SDS011;22654;51.054;3.654;2022-09-27T06:57:58;10.63;;;7.18;;
36659;SDS011;22654;51.054;3.654;2022-09-27T07:01:03;11.80;;;7.72;;
36659;SDS011;22654;51.054;3.654;2022-09-27T07:03:48;11.68;;;7.65;;
36659;SDS011;22654;51.054;3.654;2022-09-27T07:06:23;14.05;;;7.03;;
36659;SDS011;22654;51.054;3.654;2022-09-27T07:09:10;12.05;;;6.88;;
36659;SDS011;22654;51.054;3.654;2022-09-27T07:11:36;8.75;;;5.97;;
36659;SDS011;22654;51.054;3.654;2022-09-27T07:14:02;10.30;;;5.32;;
36659;SDS011;22654;51.054;3.654;2022-09-27T07:16:29;9.93;;;6.13;;
36659;SDS011;22654;51.054;3.654;2022-09-27T07:19:02;7.93;;;4.57;;
36659;SDS011;22654;51.054;3.654;2022-09-27T07:21:32;8.90;;;4.50;;
36659;SDS011;22654;51.054;3.654;2022-09-27T07:23:58;4.75;;;4.00;;
36659;SDS011;22654;51.054;3.654;2022-09-27T07:26:24;6.30;;;4.18;;
36659;SDS011;22654;51.054;3.654;2022-09-27T07:29:03;11.23;;;4.65;;
36659;SDS011;22654;51.054;3.654;2022-09-27T07:31:30;7.82;;;4.20;;
36659;SDS011;22654;51.054;3.654;2022-09-27T07:33:57;6.50;;;4.32;;
36659;SDS011;22654;51.054;3.654;2022-09-27T07:36:23;12.02;;;4.45;;
36659;SDS011;22654;51.054;3.654;2022-09-27T07:38:49;4.78;;;4.20;;
36659;SDS011;22654;51.054;3.654;2022-09-27T07:41:17;4.68;;;3.97;;
36659;SDS011;22654;51.054;3.654;2022-09-27T07:43:43;6.75;;;3.70;;
36659;SDS011;22654;51.054;3.654;2022-09-27T07:46:10;5.43;;;4.07;;
36659;SDS011;22654;51.054;3.654;2022-09-27T07:48:55;5.45;;;4.20;;
36659;SDS011;22654;51.054;3.654;2022-09-27T07:51:32;7.53;;;4.38;;
36659;SDS011;22654;51.054;3.654;2022-09-27T07:54:18;7.50;;;4.13;;
36659;SDS011;22654;51.054;3.654;2022-09-27T07:57:05;6.20;;;4.25;;
36659;SDS011;22654;51.054;3.654;2022-09-27T07:59:36;4.40;;;4.00;;
36659;SDS011;22654;51.054;3.654;2022-09-27T08:02:04;5.47;;;3.70;;
36659;SDS011;22654;51.054;3.654;2022-09-27T08:04:31;4.47;;;3.25;;
36659;SDS011;22654;51.054;3.654;2022-09-27T08:06:57;6.82;;;4.60;;
36659;SDS011;22654;51.054;3.654;2022-09-27T08:09:27;6.57;;;3.58;;
36659;SDS011;22654;51.054;3.654;2022-09-27T08:11:55;4.60;;;2.90;;
36659;SDS011;22654;51.054;3.654;2022-09-27T08:14:22;7.53;;;3.17;;
36659;SDS011;22654;51.054;3.654;2022-09-27T08:16:49;4.88;;;2.80;;
36659;SDS011;22654;51.054;3.654;2022-09-27T08:19:27;6.50;;;2.90;;
36659;SDS011;22654;51.054;3.654;2022-09-27T08:21:57;6.65;;;2.70;;
36659;SDS011;22654;51.054;3.654;2022-09-27T08:24:26;5.35;;;3.40;;
36659;SDS011;22654;51.054;3.654;2022-09-27T08:27:12;9.38;;;2.97;;
36659;SDS011;22654;51.054;3.654;2022-09-27T08:29:45;6.07;;;3.03;;
36659;SDS011;22654;51.054;3.654;2022-09-27T08:32:12;7.75;;;3.13;;
36659;SDS011;22654;51.054;3.654;2022-09-27T08:34:38;5.97;;;3.15;;
36659;SDS011;22654;51.054;3.654;2022-09-27T08:37:06;5.65;;;3.45;;
36659;SDS011;22654;51.054;3.654;2022-09-27T08:39:32;4.90;;;3.08;;
36659;SDS011;22654;51.054;3.654;2022-09-27T08:47:33;7.10;;;3.13;;
36659;SDS011;22654;51.054;3.654;2022-09-27T08:55:40;6.50;;;3.25;;
36659;SDS011;22654;51.054;3.654;2022-09-27T09:01:03;6.95;;;2.28;;
36659;SDS011;22654;51.054;3.654;2022-09-27T09:03:39;5.97;;;2.72;;
36659;SDS011;22654;51.054;3.654;2022-09-27T09:11:33;6.70;;;2.30;;
36659;SDS011;22654;51.054;3.654;2022-09-27T09:23:31;7.47;;;2.00;;
36659;SDS011;22654;51.054;3.654;2022-09-27T09:37:37;3.25;;;1.30;;
36659;SDS011;22654;51.054;3.654;2022-09-27T09:42:53;3.08;;;1.20;;
36659;SDS011;22654;51.054;3.654;2022-09-27T09:45:31;6.75;;;1.85;;
36659;SDS011;22654;51.054;3.654;2022-09-27T09:50:50;3.05;;;1.20;;
36659;SDS011;22654;51.054;3.654;2022-09-27T09:53:20;4.78;;;1.02;;
36659;SDS011;22654;51.054;3.654;2022-09-27T09:55:51;3.33;;;1.10;;
36659;SDS011;22654;51.054;3.654;2022-09-27T09:58:27;3.78;;;1.20;;
36659;SDS011;22654;51.054;3.654;2022-09-27T10:01:22;5.10;;;1.33;;
36659;SDS011;22654;51.054;3.654;2022-09-27T10:03:52;4.00;;;1.10;;
36659;SDS011;22654;51.054;3.654;2022-09-27T10:06:20;1.27;;;0.80;;
36659;SDS011;22654;51.054;3.654;2022-09-27T10:08:49;3.88;;;1.60;;
36659;SDS011;22654;51.054;3.654;2022-09-27T10:11:39;3.10;;;1.17;;
36659;SDS011;22654;51.054;3.654;2022-09-27T10:14:22;4.10;;;1.58;;
36659;SDS011;22654;51.054;3.654;2022-09-27T10:16:53;1.25;;;0.90;;
36659;SDS011;22654;51.054;3.654;2022-09-27T10:19:29;2.15;;;1.13;;
36659;SDS011;22654;51.054;3.654;2022-09-27T10:22:01;3.00;;;1.15;;
36659;SDS011;22654;51.054;3.654;2022-09-27T10:24:56;4.93;;;1.10;;
36659;SDS011;22654;51.054;3.654;2022-09-27T10:27:56;4.13;;;1.00;;
36659;SDS011;22654;51.054;3.654;2022-09-27T10:30:31;3.40;;;1.30;;
36659;SDS011;22654;51.054;3.654;2022-09-27T10:33:15;5.28;;;1.27;;
36659;SDS011;22654;51.054;3.654;2022-09-27T10:35:45;4.57;;;1.40;;
36659;SDS011;22654;51.054;3.654;2022-09-27T10:38:40;3.15;;;1.13;;
36659;SDS011;22654;51.054;3.654;2022-09-27T10:46:40;5.30;;;1.35;;
36659;SDS011;22654;51.054;3.654;2022-09-27T10:49:31;5.00;;;1.30;;
36659;SDS011;22654;51.054;3.654;2022-09-27T10:55:31;4.68;;;1.35;;
36659;SDS011;22654;51.054;3.654;2022-09-27T10:57:59;6.72;;;1.05;;
36659;SDS011;22654;51.054;3.654;2022-09-27T11:00:31;4.82;;;1.30;;
36659;SDS011;22654;51.054;3.654;2022-09-27T11:03:11;2.95;;;1.20;;
36659;SDS011;22654;51.054;3.654;2022-09-27T11:05:39;1.77;;;1.13;;
36659;SDS011;22654;51.054;3.654;2022-09-27T11:14:05;7.28;;;1.30;;
36659;SDS011;22654;51.054;3.654;2022-09-27T11:16:53;8.65;;;1.50;;
36659;SDS011;22654;51.054;3.654;2022-09-27T11:25:17;9.13;;;1.95;;
36659;SDS011;22654;51.054;3.654;2022-09-27T11:27:57;9.32;;;1.77;;
36659;SDS011;22654;51.054;3.654;2022-09-27T11:36:11;4.43;;;1.00;;
36659;SDS011;22654;51.054;3.654;2022-09-27T11:38:57;6.30;;;1.33;;
36659;SDS011;22654;51.054;3.654;2022-09-27T11:44:12;6.05;;;1.38;;
36659;SDS011;22654;51.054;3.654;2022-09-27T11:50:17;5.85;;;1.65;;
36659;SDS011;22654;51.054;3.654;2022-09-27T11:52:54;6.90;;;1.55;;
36659;SDS011;22654;51.054;3.654;2022-09-27T11:58:25;6.47;;;1.60;;
36659;SDS011;22654;51.054;3.654;2022-09-27T12:04:03;6.28;;;1.58;;
36659;SDS011;22654;51.054;3.654;2022-09-27T12:09:17;6.15;;;1.55;;
36659;SDS011;22654;51.054;3.654;2022-09-27T12:12:09;4.50;;;1.33;;
36659;SDS011;22654;51.054;3.654;2022-09-27T12:14:49;4.95;;;1.50;;
36659;SDS011;22654;51.054;3.654;2022-09-27T12:17:25;6.18;;;1.40;;
36659;SDS011;22654;51.054;3.654;2022-09-27T12:19:57;5.05;;;1.50;;
36659;SDS011;22654;51.054;3.654;2022-09-27T12:22:39;3.78;;;1.45;;
36659;SDS011;22654;51.054;3.654;2022-09-27T12:25:43;6.18;;;1.58;;
36659;SDS011;22654;51.054;3.654;2022-09-27T12:28:23;5.82;;;2.30;;
36659;SDS011;22654;51.054;3.654;2022-09-27T12:31:11;10.90;;;2.50;;
36659;SDS011;22654;51.054;3.654;2022-09-27T12:36:40;3.05;;;1.40;;
36659;SDS011;22654;51.054;3.654;2022-09-27T12:42:16;5.55;;;1.80;;
36659;SDS011;22654;51.054;3.654;2022-09-27T12:44:50;5.68;;;1.70;;
36659;SDS011;22654;51.054;3.654;2022-09-27T12:47:26;5.45;;;1.70;;
36659;SDS011;22654;51.054;3.654;2022-09-27T12:50:39;6.47;;;0.98;;
36659;SDS011;22654;51.054;3.654;2022-09-27T12:53:34;6.78;;;1.30;;
36659;SDS011;22654;51.054;3.654;2022-09-27T12:56:17;2.85;;;1.10;;
36659;SDS011;22654;51.054;3.654;2022-09-27T13:12:57;1.88;;;0.90;;
36659;SDS011;22654;51.054;3.654;2022-09-27T13:15:26;2.92;;;0.98;;
36659;SDS011;22654;51.054;3.654;2022-09-27T13:17:58;4.18;;;1.15;;
36659;SDS011;22654;51.054;3.654;2022-09-27T13:20:41;4.30;;;1.25;;
36659;SDS011;22654;51.054;3.654;2022-09-27T13:26:22;4.20;;;1.02;;
36659;SDS011;22654;51.054;3.654;2022-09-27T13:29:25;3.00;;;1.10;;
36659;SDS011;22654;51.054;3.654;2022-09-27T13:37:38;4.25;;;1.30;;
36659;SDS011;22654;51.054;3.654;2022-09-27T13:40:39;3.95;;;1.48;;
36659;SDS011;22654;51.054;3.654;2022-09-27T13:48:08;3.45;;;1.60;;
36659;SDS011;22654;51.054;3.654;2022-09-27T13:50:45;3.30;;;1.60;;
36659;SDS011;22654;51.054;3.654;2022-09-27T13:53:54;6.97;;;1.30;;
36659;SDS011;22654;51.054;3.654;2022-09-27T13:57:03;5.25;;;2.63;;
36659;SDS011;22654;51.054;3.654;2022-09-27T13:59:20;7.07;;;2.33;;
36659;SDS011;22654;51.054;3.654;2022-09-27T14:02:12;5.25;;;1.88;;
36659;SDS011;22654;51.054;3.654;2022-09-27T14:04:53;4.90;;;1.55;;
36659;SDS011;22654;51.054;3.654;2022-09-27T14:07:25;3.75;;;1.60;;
36659;SDS011;22654;51.054;3.654;2022-09-27T14:10:00;7.15;;;1.88;;
36659;SDS011;22654;51.054;3.654;2022-09-27T14:12:34;6.72;;;1.88;;
36659;SDS011;22654;51.054;3.654;2022-09-27T14:15:07;5.15;;;1.80;;
36659;SDS011;22654;51.054;3.654;2022-09-27T14:17:41;4.03;;;1.58;;
36659;SDS011;22654;51.054;3.654;2022-09-27T14:22:57;3.90;;;1.98;;
36659;SDS011;22654;51.054;3.654;2022-09-27T14:25:28;4.82;;;2.00;;
36659;SDS011;22654;51.054;3.654;2022-09-27T14:27:54;2.55;;;1.48;;
36659;SDS011;22654;51.054;3.654;2022-09-27T14:30:30;4.95;;;1.60;;
36659;SDS011;22654;51.054;3.654;2022-09-27T14:33:30;2.55;;;1.70;;
36659;SDS011;22654;51.054;3.654;2022-09-27T14:36:11;2.80;;;1.60;;
36659;SDS011;22654;51.054;3.654;2022-09-27T14:39:21;3.67;;;1.70;;
36659;SDS011;22654;51.054;3.654;2022-09-27T14:41:58;4.38;;;1.52;;
36659;SDS011;22654;51.054;3.654;2022-09-27T14:44:24;2.38;;;1.08;;
36659;SDS011;22654;51.054;3.654;2022-09-27T14:47:07;3.97;;;1.55;;
36659;SDS011;22654;51.054;3.654;2022-09-27T14:49:33;3.80;;;1.30;;
36659;SDS011;22654;51.054;3.654;2022-09-27T14:51:59;3.38;;;1.20;;
36659;SDS011;22654;51.054;3.654;2022-09-27T14:54:26;3.25;;;1.27;;
36659;SDS011;22654;51.054;3.654;2022-09-27T14:56:58;2.55;;;1.55;;
36659;SDS011;22654;51.054;3.654;2022-09-27T14:59:25;4.22;;;2.20;;
36659;SDS011;22654;51.054;3.654;2022-09-27T15:01:58;2.92;;;1.65;;
36659;SDS011;22654;51.054;3.654;2022-09-27T15:04:28;5.38;;;1.85;;
36659;SDS011;22654;51.054;3.654;2022-09-27T15:06:56;6.40;;;2.58;;
36659;SDS011;22654;51.054;3.654;2022-09-27T15:09:24;4.95;;;2.45;;
36659;SDS011;22654;51.054;3.654;2022-09-27T15:11:54;6.18;;;2.90;;
36659;SDS011;22654;51.054;3.654;2022-09-27T15:14:24;5.80;;;2.85;;
36659;SDS011;22654;51.054;3.654;2022-09-27T15:16:53;5.72;;;3.08;;
36659;SDS011;22654;51.054;3.654;2022-09-27T15:19:25;6.32;;;3.00;;
36659;SDS011;22654;51.054;3.654;2022-09-27T15:24:38;5.88;;;2.83;;
36659;SDS011;22654;51.054;3.654;2022-09-27T15:27:22;7.55;;;2.40;;
36659;SDS011;22654;51.054;3.654;2022-09-27T15:29:53;7.60;;;2.63;;
36659;SDS011;22654;51.054;3.654;2022-09-27T15:32:21;9.82;;;2.80;;
36659;SDS011;22654;51.054;3.654;2022-09-27T15:34:52;6.25;;;2.63;;
36659;SDS011;22654;51.054;3.654;2022-09-27T15:37:32;13.52;;;3.85;;
36659;SDS011;22654;51.054;3.654;2022-09-27T15:42:54;8.02;;;2.90;;
36659;SDS011;22654;51.054;3.654;2022-09-27T15:45:31;9.00;;;3.45;;
36659;SDS011;22654;51.054;3.654;2022-09-27T15:48:06;8.18;;;2.85;;
36659;SDS011;22654;51.054;3.654;2022-09-27T15:50:39;10.30;;;3.05;;
36659;SDS011;22654;51.054;3.654;2022-09-27T15:53:06;9.30;;;3.05;;
36659;SDS011;22654;51.054;3.654;2022-09-27T15:55:42;10.93;;;2.92;;
36659;SDS011;22654;51.054;3.654;2022-09-27T15:58:19;8.52;;;2.90;;
36659;SDS011;22654;51.054;3.654;2022-09-27T16:03:21;6.82;;;2.42;;
36659;SDS011;22654;51.054;3.654;2022-09-27T16:05:48;12.88;;;3.70;;
36659;SDS011;22654;51.054;3.654;2022-09-27T16:08:14;9.93;;;3.10;;
36659;SDS011;22654;51.054;3.654;2022-09-27T16:10:44;11.95;;;3.38;;
36659;SDS011;22654;51.054;3.654;2022-09-27T16:13:13;8.15;;;2.72;;
36659;SDS011;22654;51.054;3.654;2022-09-27T16:15:39;12.73;;;3.53;;
36659;SDS011;22654;51.054;3.654;2022-09-27T16:18:05;7.93;;;2.58;;
36659;SDS011;22654;51.054;3.654;2022-09-27T16:20:31;8.15;;;3.15;;
36659;SDS011;22654;51.054;3.654;2022-09-27T16:22:57;7.03;;;2.55;;
36659;SDS011;22654;51.054;3.654;2022-09-27T16:25:23;9.40;;;2.92;;
36659;SDS011;22654;51.054;3.654;2022-09-27T16:27:50;8.48;;;3.85;;
36659;SDS011;22654;51.054;3.654;2022-09-27T16:30:18;7.70;;;3.17;;
36659;SDS011;22654;51.054;3.654;2022-09-27T16:32:45;12.65;;;3.70;;
36659;SDS011;22654;51.054;3.654;2022-09-27T16:35:15;8.40;;;3.40;;
36659;SDS011;22654;51.054;3.654;2022-09-27T16:37:42;16.10;;;4.85;;
36659;SDS011;22654;51.054;3.654;2022-09-27T16:40:09;9.52;;;4.85;;
36659;SDS011;22654;51.054;3.654;2022-09-27T16:42:36;10.05;;;4.43;;
36659;SDS011;22654;51.054;3.654;2022-09-27T16:45:03;13.90;;;4.10;;
36659;SDS011;22654;51.054;3.654;2022-09-27T16:47:31;11.70;;;4.05;;
36659;SDS011;22654;51.054;3.654;2022-09-27T16:49:57;16.10;;;4.10;;
36659;SDS011;22654;51.054;3.654;2022-09-27T16:52:42;15.20;;;4.47;;
36659;SDS011;22654;51.054;3.654;2022-09-27T16:55:13;12.55;;;5.25;;
36659;SDS011;22654;51.054;3.654;2022-09-27T17:00:15;10.13;;;3.10;;
36659;SDS011;22654;51.054;3.654;2022-09-27T17:02:42;8.52;;;3.22;;
36659;SDS011;22654;51.054;3.654;2022-09-27T17:05:11;6.03;;;3.10;;
36659;SDS011;22654;51.054;3.654;2022-09-27T17:07:38;5.60;;;2.72;;
36659;SDS011;22654;51.054;3.654;2022-09-27T17:10:04;8.63;;;2.50;;
36659;SDS011;22654;51.054;3.654;2022-09-27T17:12:31;5.45;;;1.83;;
36659;SDS011;22654;51.054;3.654;2022-09-27T17:14:57;5.13;;;1.67;;
36659;SDS011;22654;51.054;3.654;2022-09-27T17:17:23;5.97;;;2.00;;
36659;SDS011;22654;51.054;3.654;2022-09-27T17:19:50;2.17;;;1.63;;
36659;SDS011;22654;51.054;3.654;2022-09-27T17:22:16;3.35;;;1.83;;
36659;SDS011;22654;51.054;3.654;2022-09-27T17:24:41;4.00;;;1.98;;
36659;SDS011;22654;51.054;3.654;2022-09-27T17:27:07;5.03;;;2.08;;
36659;SDS011;22654;51.054;3.654;2022-09-27T17:29:33;4.55;;;1.80;;
36659;SDS011;22654;51.054;3.654;2022-09-27T17:31:59;6.65;;;2.47;;
36659;SDS011;22654;51.054;3.654;2022-09-27T17:34:25;4.97;;;2.97;;
36659;SDS011;22654;51.054;3.654;2022-09-27T17:36:52;5.97;;;3.20;;
36659;SDS011;22654;51.054;3.654;2022-09-27T17:39:19;5.80;;;3.80;;
36659;SDS011;22654;51.054;3.654;2022-09-27T17:41:49;7.10;;;4.18;;
36659;SDS011;22654;51.054;3.654;2022-09-27T17:44:16;5.75;;;4.15;;
36659;SDS011;22654;51.054;3.654;2022-09-27T17:46:42;4.72;;;4.32;;
36659;SDS011;22654;51.054;3.654;2022-09-27T17:49:12;5.05;;;4.43;;
36659;SDS011;22654;51.054;3.654;2022-09-27T17:51:57;9.25;;;4.15;;
36659;SDS011;22654;51.054;3.654;2022-09-27T17:54:24;6.55;;;5.03;;
36659;SDS011;22654;51.054;3.654;2022-09-27T17:56:52;7.32;;;6.13;;
36659;SDS011;22654;51.054;3.654;2022-09-27T17:59:18;7.13;;;5.50;;
36659;SDS011;22654;51.054;3.654;2022-09-27T18:01:44;6.80;;;6.10;;
36659;SDS011;22654;51.054;3.654;2022-09-27T18:04:12;6.80;;;6.20;;
36659;SDS011;22654;51.054;3.654;2022-09-27T18:06:41;13.25;;;7.45;;
36659;SDS011;22654;51.054;3.654;2022-09-27T18:09:09;9.60;;;7.40;;
36659;SDS011;22654;51.054;3.654;2022-09-27T18:11:37;9.82;;;7.57;;
36659;SDS011;22654;51.054;3.654;2022-09-27T18:14:04;8.68;;;6.47;;
36659;SDS011;22654;51.054;3.654;2022-09-27T18:16:31;7.00;;;6.32;;
36659;SDS011;22654;51.054;3.654;2022-09-27T18:19:02;6.68;;;5.97;;
36659;SDS011;22654;51.054;3.654;2022-09-27T18:21:29;7.65;;;6.25;;
36659;SDS011;22654;51.054;3.654;2022-09-27T18:23:56;10.50;;;6.43;;
36659;SDS011;22654;51.054;3.654;2022-09-27T18:26:24;7.25;;;6.55;;